• Join FlightAware (Why Join?)
  • Login
  • US Flag 
08:55PM EDT


 

Airport Tracker/Info


-or-


 

Live Flight TrackerFlight Track Log ✈ N6452K ✈ 24-Jul-2013 ✈ KLHQ - KPMH

Flight Track Log - Related Links

Times and Time Zones

All times are in EDT time to prevent confusion due to time zone crossing. See the N6452K flight status page for this flight to view local times or setup timezone preferences in your user account.

Time Position Orientation Groundspeed Altitude Reporting Facility
EDT Latitude Longitude Course Direction KTS MPH feet Rate Location/Type
02:15PM 39.7089 -82.6322 190° South 98 113 2,700  Level Indianapolis Center
02:16PM 39.6908 -82.6383 195° South 95 109 3,300 600 Climbing Indianapolis Center
02:17PM 39.6631 -82.6494 197° South 86 99 4,000 360 Climbing Indianapolis Center
02:18PM 39.6436 -82.6561 195° South 90 104 4,100  Climbing Indianapolis Center
02:19PM 39.6050 -82.6681 193° South 120 138 4,100  Level Indianapolis Center
02:20PM 39.5647 -82.6814 194° South 127 146 4,100  Level Indianapolis Center
02:21PM 39.5309 -82.6904 190° South  Level FlightAware Approximate
02:21PM 39.5289 -82.6864 186° South 127 146 4,100  Level Indianapolis Center
02:22PM 39.4922 -82.6911 186° South 130 150 4,100 -60 Level Indianapolis Center
02:23PM 39.4572 -82.6953 185° South 127 146 4,000  Descending Indianapolis Center
02:24PM 39.4219 -82.7044 191° South 127 146 4,100  Climbing Indianapolis Center
02:25PM 39.3875 -82.7203 200° South 130 150 4,100 -60 Level Indianapolis Center
02:26PM 39.3519 -82.7306 193° South 131 151 4,000 -60 Descending Indianapolis Center
02:27PM 39.3103 -82.7417 192° South 131 151 4,000  Level Indianapolis Center
02:28PM 39.2747 -82.7439 183° South 129 148 4,100  Climbing Indianapolis Center
02:29PM 39.2406 -82.7561 195° South 126 145 4,100 -60 Level Indianapolis Center
02:30PM 39.2033 -82.7572 181° South 133 153 4,000 -60 Descending Indianapolis Center
02:31PM 39.1692 -82.7628 187° South 131 151 4,000  Level Indianapolis Center
02:32PM 39.1344 -82.7764 197° South 130 150 4,100  Climbing Indianapolis Center
02:34PM 39.0925 -82.7911 195° South 131 151 4,100 -60 Level Indianapolis Center
02:35PM 39.0558 -82.7989 189° South 133 153 4,000  Descending Indianapolis Center
02:36PM 39.0214 -82.7967 177° South 129 148 4,100  Climbing Indianapolis Center
02:37PM 38.9894 -82.8169 206° Southwest 133 153 4,000 -300 Descending Indianapolis Center
02:38PM 38.9531 -82.8153 178° South 130 150 3,500 -360 Descending Indianapolis Center
02:39PM 38.9169 -82.8108 175° South 132 152 3,300 -120 Descending Indianapolis Center
02:40PM 38.8792 -82.7969 164° South 122 140 3,300 -60 Level Indianapolis Center
02:41PM 38.8456 -82.7881 168° South 123 142 3,200  Descending Indianapolis Center
02:42PM 38.8144 -82.7764 164° South 120 138 3,400  Climbing Indianapolis Center
02:43PM 38.7808 -82.7731 176° South 120 138 3,300 -60 Descending Indianapolis Center
02:44PM 38.7483 -82.7622 165° South 121 139 3,300  Level Indianapolis Center
02:45PM 38.7158 -82.7511 165° South 120 138 3,400  Climbing Indianapolis Center
02:46PM 38.6839 -82.7406 166° South 104 120 3,300 -120 Descending Indianapolis Center
02:47PM 38.6592 -82.7389 177° South 93 107 3,200  Descending Indianapolis Center
02:48PM 38.6356 -82.7322 168° South 93 107 3,400 -60 Climbing Indianapolis Center
02:49PM 38.6364 -82.7736 271° West 98 113 3,100 -240 Descending Indianapolis Center
02:50PM 38.6325 -82.8078 262° West 98 113 3,000 -60 Descending Indianapolis Center
02:51PM 38.6386 -82.8400 284° West 96 110 3,000 -120 Level Indianapolis Center
02:52PM 38.6631 -82.8331 13° North 90 104 2,800 -240 Descending Indianapolis Center
02:53PM 38.6872 -82.8358 355° North 85 98 2,600 -60 Descending Indianapolis Center
02:54PM 38.7131 -82.8381 356° North 82 94 2,700  Climbing Indianapolis Center
02:55PM 38.7364 -82.8408 355° North 82 94 2,600 -180 Descending Indianapolis Center
02:56PM 38.7581 -82.8406 North 81 93 2,400 -240 Descending Indianapolis Center